sensor_id;sensor_type;location;lat;lon;timestamp;temperature;humidity
66271;DHT22;53063;39.614;8.814;2022-08-19T00:01:53;23.60;70.90
66271;DHT22;53063;39.614;8.814;2022-08-19T00:04:23;23.60;70.70
66271;DHT22;53063;39.614;8.814;2022-08-19T00:06:49;23.60;70.40
66271;DHT22;53063;39.614;8.814;2022-08-19T00:09:17;23.60;70.10
66271;DHT22;53063;39.614;8.814;2022-08-19T00:11:44;23.70;69.60
66271;DHT22;53063;39.614;8.814;2022-08-19T00:14:14;23.70;69.30
66271;DHT22;53063;39.614;8.814;2022-08-19T00:16:43;23.70;69.20
66271;DHT22;53063;39.614;8.814;2022-08-19T00:19:09;23.60;69.00
66271;DHT22;53063;39.614;8.814;2022-08-19T00:21:36;23.60;68.90
66271;DHT22;53063;39.614;8.814;2022-08-19T00:24:10;23.60;68.70
66271;DHT22;53063;39.614;8.814;2022-08-19T00:26:38;23.60;68.50
66271;DHT22;53063;39.614;8.814;2022-08-19T00:29:05;23.60;68.30
66271;DHT22;53063;39.614;8.814;2022-08-19T00:31:32;23.70;68.10
66271;DHT22;53063;39.614;8.814;2022-08-19T00:33:58;23.60;68.00
66271;DHT22;53063;39.614;8.814;2022-08-19T00:36:24;23.60;67.80
66271;DHT22;53063;39.614;8.814;2022-08-19T00:38:51;23.60;67.60
66271;DHT22;53063;39.614;8.814;2022-08-19T00:41:20;23.60;67.60
66271;DHT22;53063;39.614;8.814;2022-08-19T00:44:03;23.60;67.60
66271;DHT22;53063;39.614;8.814;2022-08-19T00:46:30;23.50;68.00
66271;DHT22;53063;39.614;8.814;2022-08-19T00:48:59;23.40;68.30
66271;DHT22;53063;39.614;8.814;2022-08-19T00:51:27;23.40;68.00
66271;DHT22;53063;39.614;8.814;2022-08-19T00:53:55;23.50;67.90
66271;DHT22;53063;39.614;8.814;2022-08-19T00:56:23;23.40;67.80
66271;DHT22;53063;39.614;8.814;2022-08-19T00:58:49;23.40;67.60
66271;DHT22;53063;39.614;8.814;2022-08-19T01:01:15;23.40;67.60
66271;DHT22;53063;39.614;8.814;2022-08-19T01:03:41;23.40;67.80
66271;DHT22;53063;39.614;8.814;2022-08-19T01:06:07;23.30;67.90
66271;DHT22;53063;39.614;8.814;2022-08-19T01:08:33;23.20;68.20
66271;DHT22;53063;39.614;8.814;2022-08-19T01:11:00;23.10;68.60
66271;DHT22;53063;39.614;8.814;2022-08-19T01:13:30;23.10;68.60
66271;DHT22;53063;39.614;8.814;2022-08-19T01:16:02;23.20;68.30
66271;DHT22;53063;39.614;8.814;2022-08-19T01:18:29;23.40;68.00
66271;DHT22;53063;39.614;8.814;2022-08-19T01:20:59;23.40;67.50
66271;DHT22;53063;39.614;8.814;2022-08-19T01:23:27;23.50;67.30
66271;DHT22;53063;39.614;8.814;2022-08-19T01:26:20;23.50;67.10
66271;DHT22;53063;39.614;8.814;2022-08-19T01:28:49;23.30;67.50
66271;DHT22;53063;39.614;8.814;2022-08-19T01:31:19;23.20;67.80
66271;DHT22;53063;39.614;8.814;2022-08-19T01:33:48;23.00;68.20
66271;DHT22;53063;39.614;8.814;2022-08-19T01:36:39;22.70;69.20
66271;DHT22;53063;39.614;8.814;2022-08-19T01:39:07;22.60;69.80
66271;DHT22;53063;39.614;8.814;2022-08-19T01:41:33;22.50;70.10
66271;DHT22;53063;39.614;8.814;2022-08-19T01:44:00;22.60;70.20
66271;DHT22;53063;39.614;8.814;2022-08-19T01:46:29;22.90;69.60
66271;DHT22;53063;39.614;8.814;2022-08-19T01:48:56;23.00;68.70
66271;DHT22;53063;39.614;8.814;2022-08-19T01:51:22;23.10;68.30
66271;DHT22;53063;39.614;8.814;2022-08-19T01:53:49;23.20;67.80
66271;DHT22;53063;39.614;8.814;2022-08-19T01:56:16;23.30;67.10
66271;DHT22;53063;39.614;8.814;2022-08-19T01:58:47;23.40;66.70
66271;DHT22;53063;39.614;8.814;2022-08-19T02:01:14;23.50;66.30
66271;DHT22;53063;39.614;8.814;2022-08-19T02:03:40;23.50;66.00
66271;DHT22;53063;39.614;8.814;2022-08-19T02:06:06;23.50;65.80
66271;DHT22;53063;39.614;8.814;2022-08-19T02:08:36;23.50;65.90
66271;DHT22;53063;39.614;8.814;2022-08-19T02:11:02;23.50;65.80
66271;DHT22;53063;39.614;8.814;2022-08-19T02:13:29;23.60;65.60
66271;DHT22;53063;39.614;8.814;2022-08-19T02:15:55;23.50;65.70
66271;DHT22;53063;39.614;8.814;2022-08-19T02:18:21;23.50;65.70
66271;DHT22;53063;39.614;8.814;2022-08-19T02:20:47;23.50;65.70
66271;DHT22;53063;39.614;8.814;2022-08-19T02:23:14;23.50;65.40
66271;DHT22;53063;39.614;8.814;2022-08-19T02:25:42;23.50;65.40
66271;DHT22;53063;39.614;8.814;2022-08-19T02:28:08;23.50;65.40
66271;DHT22;53063;39.614;8.814;2022-08-19T02:30:34;23.50;65.30
66271;DHT22;53063;39.614;8.814;2022-08-19T02:33:00;23.50;65.30
66271;DHT22;53063;39.614;8.814;2022-08-19T02:35:26;23.40;65.40
66271;DHT22;53063;39.614;8.814;2022-08-19T02:37:52;23.30;65.50
66271;DHT22;53063;39.614;8.814;2022-08-19T02:40:36;23.30;65.70
66271;DHT22;53063;39.614;8.814;2022-08-19T02:43:04;23.30;65.50
66271;DHT22;53063;39.614;8.814;2022-08-19T02:45:38;23.00;66.30
66271;DHT22;53063;39.614;8.814;2022-08-19T02:48:08;22.90;66.90
66271;DHT22;53063;39.614;8.814;2022-08-19T02:50:38;22.80;67.10
66271;DHT22;53063;39.614;8.814;2022-08-19T02:53:05;22.80;67.20
66271;DHT22;53063;39.614;8.814;2022-08-19T02:55:32;22.80;67.50
66271;DHT22;53063;39.614;8.814;2022-08-19T02:57:58;22.70;67.60
66271;DHT22;53063;39.614;8.814;2022-08-19T03:00:26;22.70;67.50
66271;DHT22;53063;39.614;8.814;2022-08-19T03:02:52;22.70;67.50
66271;DHT22;53063;39.614;8.814;2022-08-19T03:05:18;22.60;67.70
66271;DHT22;53063;39.614;8.814;2022-08-19T03:07:44;22.60;67.90
66271;DHT22;53063;39.614;8.814;2022-08-19T03:10:12;22.40;68.20
66271;DHT22;53063;39.614;8.814;2022-08-19T03:12:38;22.40;68.30
66271;DHT22;53063;39.614;8.814;2022-08-19T03:15:06;22.30;68.80
66271;DHT22;53063;39.614;8.814;2022-08-19T03:17:34;22.30;68.80
66271;DHT22;53063;39.614;8.814;2022-08-19T03:20:00;22.30;68.70
66271;DHT22;53063;39.614;8.814;2022-08-19T03:22:26;22.30;69.00
66271;DHT22;53063;39.614;8.814;2022-08-19T03:24:52;22.30;69.20
66271;DHT22;53063;39.614;8.814;2022-08-19T03:27:19;22.30;69.50
66271;DHT22;53063;39.614;8.814;2022-08-19T03:29:45;22.10;69.40
66271;DHT22;53063;39.614;8.814;2022-08-19T03:32:11;22.00;69.90
66271;DHT22;53063;39.614;8.814;2022-08-19T03:34:38;21.90;70.40
66271;DHT22;53063;39.614;8.814;2022-08-19T03:37:08;21.90;70.50
66271;DHT22;53063;39.614;8.814;2022-08-19T03:39:37;21.80;70.80
66271;DHT22;53063;39.614;8.814;2022-08-19T03:42:03;21.70;70.90
66271;DHT22;53063;39.614;8.814;2022-08-19T03:44:30;21.60;71.30
66271;DHT22;53063;39.614;8.814;2022-08-19T03:46:59;21.60;71.50
66271;DHT22;53063;39.614;8.814;2022-08-19T03:49:28;21.60;71.70
66271;DHT22;53063;39.614;8.814;2022-08-19T03:51:57;21.50;72.00
66271;DHT22;53063;39.614;8.814;2022-08-19T03:54:24;21.50;72.20
66271;DHT22;53063;39.614;8.814;2022-08-19T03:56:52;21.50;72.30
66271;DHT22;53063;39.614;8.814;2022-08-19T03:59:28;21.50;72.50
66271;DHT22;53063;39.614;8.814;2022-08-19T04:01:57;21.60;72.70
66271;DHT22;53063;39.614;8.814;2022-08-19T04:04:23;21.70;72.60
66271;DHT22;53063;39.614;8.814;2022-08-19T04:06:50;21.70;72.20
66271;DHT22;53063;39.614;8.814;2022-08-19T04:09:18;21.60;72.30
66271;DHT22;53063;39.614;8.814;2022-08-19T04:11:46;21.60;72.80
66271;DHT22;53063;39.614;8.814;2022-08-19T04:14:17;21.70;72.60
66271;DHT22;53063;39.614;8.814;2022-08-19T04:16:45;21.70;72.20
66271;DHT22;53063;39.614;8.814;2022-08-19T04:19:12;21.50;72.40
66271;DHT22;53063;39.614;8.814;2022-08-19T04:21:39;21.50;72.70
66271;DHT22;53063;39.614;8.814;2022-08-19T04:24:06;21.50;72.90
66271;DHT22;53063;39.614;8.814;2022-08-19T04:26:35;21.50;72.90
66271;DHT22;53063;39.614;8.814;2022-08-19T04:29:06;21.50;72.90
66271;DHT22;53063;39.614;8.814;2022-08-19T04:31:32;21.50;72.90
66271;DHT22;53063;39.614;8.814;2022-08-19T04:34:03;21.70;72.70
66271;DHT22;53063;39.614;8.814;2022-08-19T04:36:32;21.90;72.50
66271;DHT22;53063;39.614;8.814;2022-08-19T04:39:02;22.10;72.00
66271;DHT22;53063;39.614;8.814;2022-08-19T04:41:28;22.20;71.60
66271;DHT22;53063;39.614;8.814;2022-08-19T04:44:14;22.20;71.10
66271;DHT22;53063;39.614;8.814;2022-08-19T04:46:47;21.90;71.50
66271;DHT22;53063;39.614;8.814;2022-08-19T04:49:14;21.80;71.90
66271;DHT22;53063;39.614;8.814;2022-08-19T04:51:44;21.80;72.30
66271;DHT22;53063;39.614;8.814;2022-08-19T04:54:11;21.70;72.50
66271;DHT22;53063;39.614;8.814;2022-08-19T04:56:39;21.70;72.60
66271;DHT22;53063;39.614;8.814;2022-08-19T04:59:06;21.60;72.80
66271;DHT22;53063;39.614;8.814;2022-08-19T05:01:34;21.70;72.80
66271;DHT22;53063;39.614;8.814;2022-08-19T05:04:04;21.70;72.80
66271;DHT22;53063;39.614;8.814;2022-08-19T05:06:33;21.70;73.10
66271;DHT22;53063;39.614;8.814;2022-08-19T05:09:01;21.80;72.60
66271;DHT22;53063;39.614;8.814;2022-08-19T05:11:30;21.80;72.60
66271;DHT22;53063;39.614;8.814;2022-08-19T05:13:57;21.90;72.40
66271;DHT22;53063;39.614;8.814;2022-08-19T05:16:24;21.90;72.70
66271;DHT22;53063;39.614;8.814;2022-08-19T05:18:51;21.90;72.90
66271;DHT22;53063;39.614;8.814;2022-08-19T05:21:36;22.00;72.60
66271;DHT22;53063;39.614;8.814;2022-08-19T05:24:22;22.10;72.70
66271;DHT22;53063;39.614;8.814;2022-08-19T05:26:51;22.40;72.30
66271;DHT22;53063;39.614;8.814;2022-08-19T05:29:19;22.50;71.60
66271;DHT22;53063;39.614;8.814;2022-08-19T05:31:46;22.70;71.00
66271;DHT22;53063;39.614;8.814;2022-08-19T05:34:16;22.70;71.40
66271;DHT22;53063;39.614;8.814;2022-08-19T05:36:43;22.80;71.80
66271;DHT22;53063;39.614;8.814;2022-08-19T05:39:16;22.90;71.60
66271;DHT22;53063;39.614;8.814;2022-08-19T05:41:45;22.70;71.20
66271;DHT22;53063;39.614;8.814;2022-08-19T05:44:11;22.70;71.50
66271;DHT22;53063;39.614;8.814;2022-08-19T05:46:38;22.70;71.60
66271;DHT22;53063;39.614;8.814;2022-08-19T05:49:08;22.80;72.00
66271;DHT22;53063;39.614;8.814;2022-08-19T05:51:36;23.00;71.90
66271;DHT22;53063;39.614;8.814;2022-08-19T05:54:05;22.90;71.10
66271;DHT22;53063;39.614;8.814;2022-08-19T05:56:32;23.00;71.20
66271;DHT22;53063;39.614;8.814;2022-08-19T05:59:02;23.20;70.80
66271;DHT22;53063;39.614;8.814;2022-08-19T06:01:29;23.40;71.40
66271;DHT22;53063;39.614;8.814;2022-08-19T06:03:55;23.50;71.30
66271;DHT22;53063;39.614;8.814;2022-08-19T06:06:21;23.40;73.90
66271;DHT22;53063;39.614;8.814;2022-08-19T06:08:48;23.30;76.90
66271;DHT22;53063;39.614;8.814;2022-08-19T06:13:49;22.70;80.40
66271;DHT22;53063;39.614;8.814;2022-08-19T06:16:22;22.80;81.60
66271;DHT22;53063;39.614;8.814;2022-08-19T06:18:55;22.60;82.20
66271;DHT22;53063;39.614;8.814;2022-08-19T06:21:25;22.70;83.10
66271;DHT22;53063;39.614;8.814;2022-08-19T06:23:53;22.70;83.60
66271;DHT22;53063;39.614;8.814;2022-08-19T06:26:20;22.70;83.10
66271;DHT22;53063;39.614;8.814;2022-08-19T06:28:47;22.80;82.00
66271;DHT22;53063;39.614;8.814;2022-08-19T06:31:20;22.90;82.10
66271;DHT22;53063;39.614;8.814;2022-08-19T06:33:48;23.00;82.20
66271;DHT22;53063;39.614;8.814;2022-08-19T06:36:23;23.00;81.30
66271;DHT22;53063;39.614;8.814;2022-08-19T06:38:58;23.00;81.80
66271;DHT22;53063;39.614;8.814;2022-08-19T06:41:25;23.00;82.50
66271;DHT22;53063;39.614;8.814;2022-08-19T06:43:52;23.10;82.20
66271;DHT22;53063;39.614;8.814;2022-08-19T06:46:18;23.40;81.60
66271;DHT22;53063;39.614;8.814;2022-08-19T06:48:46;23.20;79.00
66271;DHT22;53063;39.614;8.814;2022-08-19T06:51:14;23.50;79.70
66271;DHT22;53063;39.614;8.814;2022-08-19T06:53:41;23.70;78.20
66271;DHT22;53063;39.614;8.814;2022-08-19T06:56:13;24.20;77.60
66271;DHT22;53063;39.614;8.814;2022-08-19T06:58:39;24.20;77.70
66271;DHT22;53063;39.614;8.814;2022-08-19T07:01:05;24.50;77.40
66271;DHT22;53063;39.614;8.814;2022-08-19T07:03:33;24.80;76.00
66271;DHT22;53063;39.614;8.814;2022-08-19T07:06:11;25.10;75.20
66271;DHT22;53063;39.614;8.814;2022-08-19T07:08:38;25.30;73.00
66271;DHT22;53063;39.614;8.814;2022-08-19T07:11:11;25.40;72.40
66271;DHT22;53063;39.614;8.814;2022-08-19T07:13:39;25.60;70.50
66271;DHT22;53063;39.614;8.814;2022-08-19T07:16:10;25.80;68.80
66271;DHT22;53063;39.614;8.814;2022-08-19T07:18:37;26.00;68.40
66271;DHT22;53063;39.614;8.814;2022-08-19T07:21:13;26.10;67.20
66271;DHT22;53063;39.614;8.814;2022-08-19T07:23:39;26.40;65.70
66271;DHT22;53063;39.614;8.814;2022-08-19T07:26:14;26.60;63.90
66271;DHT22;53063;39.614;8.814;2022-08-19T07:28:41;26.70;62.90
66271;DHT22;53063;39.614;8.814;2022-08-19T07:31:14;27.00;62.20
66271;DHT22;53063;39.614;8.814;2022-08-19T07:33:41;27.20;61.90
66271;DHT22;53063;39.614;8.814;2022-08-19T07:36:10;27.40;61.70
66271;DHT22;53063;39.614;8.814;2022-08-19T07:38:41;26.50;70.00
66271;DHT22;53063;39.614;8.814;2022-08-19T07:41:10;24.60;76.30
66271;DHT22;53063;39.614;8.814;2022-08-19T07:43:37;23.20;80.60
66271;DHT22;53063;39.614;8.814;2022-08-19T07:46:03;23.40;82.10
66271;DHT22;53063;39.614;8.814;2022-08-19T07:48:29;23.40;81.10
66271;DHT22;53063;39.614;8.814;2022-08-19T07:50:57;23.60;82.80
66271;DHT22;53063;39.614;8.814;2022-08-19T07:53:24;24.30;82.30
66271;DHT22;53063;39.614;8.814;2022-08-19T07:55:51;24.90;81.30
66271;DHT22;53063;39.614;8.814;2022-08-19T07:58:19;25.30;80.30
66271;DHT22;53063;39.614;8.814;2022-08-19T08:00:48;25.40;78.70
66271;DHT22;53063;39.614;8.814;2022-08-19T08:03:17;25.60;77.30
66271;DHT22;53063;39.614;8.814;2022-08-19T08:05:43;25.90;78.00
66271;DHT22;53063;39.614;8.814;2022-08-19T08:08:28;25.40;77.70
66271;DHT22;53063;39.614;8.814;2022-08-19T08:11:15;24.90;79.40
66271;DHT22;53063;39.614;8.814;2022-08-19T08:13:42;24.50;80.30
66271;DHT22;53063;39.614;8.814;2022-08-19T08:16:08;24.40;80.10
66271;DHT22;53063;39.614;8.814;2022-08-19T08:18:34;24.90;80.80
66271;DHT22;53063;39.614;8.814;2022-08-19T08:21:07;25.60;79.60
66271;DHT22;53063;39.614;8.814;2022-08-19T08:23:34;25.80;77.50
66271;DHT22;53063;39.614;8.814;2022-08-19T08:26:00;25.40;76.50
66271;DHT22;53063;39.614;8.814;2022-08-19T08:28:27;25.30;78.20
66271;DHT22;53063;39.614;8.814;2022-08-19T08:30:53;25.30;79.10
66271;DHT22;53063;39.614;8.814;2022-08-19T08:33:22;25.40;76.70
66271;DHT22;53063;39.614;8.814;2022-08-19T08:35:49;26.10;77.00
66271;DHT22;53063;39.614;8.814;2022-08-19T08:38:15;26.20;75.70
66271;DHT22;53063;39.614;8.814;2022-08-19T08:40:53;26.00;74.70
66271;DHT22;53063;39.614;8.814;2022-08-19T08:43:38;25.40;73.70
66271;DHT22;53063;39.614;8.814;2022-08-19T08:46:16;25.70;73.60
66271;DHT22;53063;39.614;8.814;2022-08-19T08:48:56;26.00;73.50
66271;DHT22;53063;39.614;8.814;2022-08-19T08:51:29;26.10;70.70
66271;DHT22;53063;39.614;8.814;2022-08-19T08:53:59;26.40;70.00
66271;DHT22;53063;39.614;8.814;2022-08-19T08:56:25;26.80;67.70
66271;DHT22;53063;39.614;8.814;2022-08-19T08:58:58;27.10;67.20
66271;DHT22;53063;39.614;8.814;2022-08-19T09:01:25;27.30;65.40
66271;DHT22;53063;39.614;8.814;2022-08-19T09:03:52;27.10;65.80
66271;DHT22;53063;39.614;8.814;2022-08-19T09:17:00;27.90;63.50
66271;DHT22;53063;39.614;8.814;2022-08-19T09:19:29;27.80;62.80
66271;DHT22;53063;39.614;8.814;2022-08-19T09:21:55;27.30;62.50
66271;DHT22;53063;39.614;8.814;2022-08-19T09:24:21;27.20;62.10
66271;DHT22;53063;39.614;8.814;2022-08-19T09:26:47;27.90;59.80
66271;DHT22;53063;39.614;8.814;2022-08-19T09:29:14;27.30;60.50
66271;DHT22;53063;39.614;8.814;2022-08-19T09:31:40;26.60;61.70
66271;DHT22;53063;39.614;8.814;2022-08-19T09:34:06;26.70;63.40
66271;DHT22;53063;39.614;8.814;2022-08-19T09:36:32;27.10;61.00
66271;DHT22;53063;39.614;8.814;2022-08-19T09:38:59;27.30;61.40
66271;DHT22;53063;39.614;8.814;2022-08-19T09:41:26;27.10;60.50
66271;DHT22;53063;39.614;8.814;2022-08-19T09:43:54;27.40;59.80
66271;DHT22;53063;39.614;8.814;2022-08-19T09:46:26;28.10;58.60
66271;DHT22;53063;39.614;8.814;2022-08-19T09:48:53;28.50;57.40
66271;DHT22;53063;39.614;8.814;2022-08-19T09:51:23;28.80;55.80
66271;DHT22;53063;39.614;8.814;2022-08-19T09:53:51;29.10;55.80
66271;DHT22;53063;39.614;8.814;2022-08-19T09:56:19;28.50;56.00
66271;DHT22;53063;39.614;8.814;2022-08-19T09:58:46;29.00;56.60
66271;DHT22;53063;39.614;8.814;2022-08-19T10:01:23;29.50;54.60
66271;DHT22;53063;39.614;8.814;2022-08-19T10:03:52;29.90;53.60
66271;DHT22;53063;39.614;8.814;2022-08-19T10:06:21;29.60;51.20
66271;DHT22;53063;39.614;8.814;2022-08-19T10:08:48;29.80;52.40
66271;DHT22;53063;39.614;8.814;2022-08-19T10:11:15;29.90;52.80
66271;DHT22;53063;39.614;8.814;2022-08-19T10:13:43;29.20;52.80
66271;DHT22;53063;39.614;8.814;2022-08-19T10:16:14;29.50;53.30
66271;DHT22;53063;39.614;8.814;2022-08-19T10:18:40;29.20;54.30
66271;DHT22;53063;39.614;8.814;2022-08-19T10:21:22;29.30;53.90
66271;DHT22;53063;39.614;8.814;2022-08-19T10:23:50;30.00;52.80
66271;DHT22;53063;39.614;8.814;2022-08-19T10:26:21;29.70;53.60
66271;DHT22;53063;39.614;8.814;2022-08-19T10:28:48;29.60;52.60
66271;DHT22;53063;39.614;8.814;2022-08-19T10:31:20;29.30;52.90
66271;DHT22;53063;39.614;8.814;2022-08-19T10:33:47;28.30;60.50
66271;DHT22;53063;39.614;8.814;2022-08-19T10:36:23;27.10;66.90
66271;DHT22;53063;39.614;8.814;2022-08-19T10:38:52;26.00;68.80
66271;DHT22;53063;39.614;8.814;2022-08-19T10:41:24;26.00;70.40
66271;DHT22;53063;39.614;8.814;2022-08-19T10:43:54;26.70;70.30
66271;DHT22;53063;39.614;8.814;2022-08-19T10:46:22;26.90;70.40
66271;DHT22;53063;39.614;8.814;2022-08-19T10:48:49;26.60;67.80
66271;DHT22;53063;39.614;8.814;2022-08-19T10:51:16;27.80;65.80
66271;DHT22;53063;39.614;8.814;2022-08-19T10:54:02;28.70;61.50
66271;DHT22;53063;39.614;8.814;2022-08-19T10:56:29;29.10;58.10
66271;DHT22;53063;39.614;8.814;2022-08-19T10:59:14;29.10;56.80
66271;DHT22;53063;39.614;8.814;2022-08-19T11:01:41;28.60;57.10
66271;DHT22;53063;39.614;8.814;2022-08-19T11:04:08;29.30;54.00
66271;DHT22;53063;39.614;8.814;2022-08-19T11:06:37;28.70;55.20
66271;DHT22;53063;39.614;8.814;2022-08-19T11:09:04;28.40;55.90
66271;DHT22;53063;39.614;8.814;2022-08-19T11:11:31;29.10;53.40
66271;DHT22;53063;39.614;8.814;2022-08-19T11:13:58;29.70;50.90
66271;DHT22;53063;39.614;8.814;2022-08-19T11:16:26;30.00;50.00
66271;DHT22;53063;39.614;8.814;2022-08-19T11:18:58;30.00;50.50
66271;DHT22;53063;39.614;8.814;2022-08-19T11:21:33;30.30;51.50
66271;DHT22;53063;39.614;8.814;2022-08-19T11:24:01;29.90;53.40
66271;DHT22;53063;39.614;8.814;2022-08-19T11:26:29;28.90;54.60
66271;DHT22;53063;39.614;8.814;2022-08-19T11:28:57;29.20;54.90
66271;DHT22;53063;39.614;8.814;2022-08-19T11:31:29;30.00;51.60
66271;DHT22;53063;39.614;8.814;2022-08-19T11:33:57;30.60;47.20
66271;DHT22;53063;39.614;8.814;2022-08-19T11:36:25;30.70;48.30
66271;DHT22;53063;39.614;8.814;2022-08-19T11:38:52;30.60;48.80
66271;DHT22;53063;39.614;8.814;2022-08-19T11:41:20;31.10;47.10
66271;DHT22;53063;39.614;8.814;2022-08-19T11:43:46;30.70;47.70
66271;DHT22;53063;39.614;8.814;2022-08-19T11:46:14;31.00;48.10
66271;DHT22;53063;39.614;8.814;2022-08-19T11:48:41;31.10;47.20
66271;DHT22;53063;39.614;8.814;2022-08-19T11:51:11;31.00;48.60
66271;DHT22;53063;39.614;8.814;2022-08-19T11:53:38;31.20;48.60
66271;DHT22;53063;39.614;8.814;2022-08-19T11:56:05;30.10;50.00
66271;DHT22;53063;39.614;8.814;2022-08-19T11:58:32;30.40;48.60
66271;DHT22;53063;39.614;8.814;2022-08-19T12:00:58;30.90;46.80
66271;DHT22;53063;39.614;8.814;2022-08-19T12:03:24;30.70;46.70
66271;DHT22;53063;39.614;8.814;2022-08-19T12:05:50;30.70;47.70
66271;DHT22;53063;39.614;8.814;2022-08-19T12:08:17;30.30;48.30
66271;DHT22;53063;39.614;8.814;2022-08-19T12:10:43;30.70;47.20
66271;DHT22;53063;39.614;8.814;2022-08-19T12:13:12;31.10;47.50
66271;DHT22;53063;39.614;8.814;2022-08-19T12:15:41;31.50;45.70
66271;DHT22;53063;39.614;8.814;2022-08-19T12:18:08;31.80;45.40
66271;DHT22;53063;39.614;8.814;2022-08-19T12:20:36;31.70;44.30
66271;DHT22;53063;39.614;8.814;2022-08-19T12:23:03;31.80;44.70
66271;DHT22;53063;39.614;8.814;2022-08-19T12:25:30;31.70;44.20
66271;DHT22;53063;39.614;8.814;2022-08-19T12:27:57;31.80;45.50
66271;DHT22;53063;39.614;8.814;2022-08-19T12:30:23;30.90;45.90
66271;DHT22;53063;39.614;8.814;2022-08-19T12:32:49;31.30;46.60
66271;DHT22;53063;39.614;8.814;2022-08-19T12:35:17;31.60;46.10
66271;DHT22;53063;39.614;8.814;2022-08-19T12:37:46;31.90;44.00
66271;DHT22;53063;39.614;8.814;2022-08-19T12:40:14;30.90;45.50
66271;DHT22;53063;39.614;8.814;2022-08-19T12:42:41;31.20;44.20
66271;DHT22;53063;39.614;8.814;2022-08-19T12:45:12;31.50;42.90
66271;DHT22;53063;39.614;8.814;2022-08-19T12:47:39;31.10;44.50
66271;DHT22;53063;39.614;8.814;2022-08-19T12:50:06;30.50;46.80
66271;DHT22;53063;39.614;8.814;2022-08-19T12:52:35;29.70;48.10
66271;DHT22;53063;39.614;8.814;2022-08-19T12:55:08;29.10;50.70
66271;DHT22;53063;39.614;8.814;2022-08-19T12:57:35;29.70;51.30
66271;DHT22;53063;39.614;8.814;2022-08-19T13:00:09;30.40;48.80
66271;DHT22;53063;39.614;8.814;2022-08-19T13:02:40;30.70;45.40
66271;DHT22;53063;39.614;8.814;2022-08-19T13:05:08;30.70;47.20
66271;DHT22;53063;39.614;8.814;2022-08-19T13:07:37;30.10;48.80
66271;DHT22;53063;39.614;8.814;2022-08-19T13:10:06;30.40;48.90
66271;DHT22;53063;39.614;8.814;2022-08-19T13:12:32;30.60;48.40
66271;DHT22;53063;39.614;8.814;2022-08-19T13:14:58;29.90;49.50
66271;DHT22;53063;39.614;8.814;2022-08-19T13:17:24;29.60;49.70
66271;DHT22;53063;39.614;8.814;2022-08-19T13:19:50;29.20;49.60
66271;DHT22;53063;39.614;8.814;2022-08-19T13:22:17;29.30;50.40
66271;DHT22;53063;39.614;8.814;2022-08-19T13:24:43;29.10;51.50
66271;DHT22;53063;39.614;8.814;2022-08-19T13:27:09;29.00;52.80
66271;DHT22;53063;39.614;8.814;2022-08-19T13:29:35;29.70;50.00
66271;DHT22;53063;39.614;8.814;2022-08-19T13:32:19;29.50;49.20
66271;DHT22;53063;39.614;8.814;2022-08-19T13:35:04;30.00;48.90
66271;DHT22;53063;39.614;8.814;2022-08-19T13:37:30;29.80;49.60
66271;DHT22;53063;39.614;8.814;2022-08-19T13:40:15;29.90;49.20
66271;DHT22;53063;39.614;8.814;2022-08-19T13:42:45;30.00;49.60
66271;DHT22;53063;39.614;8.814;2022-08-19T13:45:12;30.00;48.90
66271;DHT22;53063;39.614;8.814;2022-08-19T13:47:38;29.80;48.50
66271;DHT22;53063;39.614;8.814;2022-08-19T13:50:14;30.00;49.40
66271;DHT22;53063;39.614;8.814;2022-08-19T13:52:41;29.80;48.20
66271;DHT22;53063;39.614;8.814;2022-08-19T13:55:07;29.90;48.70
66271;DHT22;53063;39.614;8.814;2022-08-19T13:57:34;30.00;48.90
66271;DHT22;53063;39.614;8.814;2022-08-19T14:00:02;30.00;47.90
66271;DHT22;53063;39.614;8.814;2022-08-19T14:02:30;30.00;48.70
66271;DHT22;53063;39.614;8.814;2022-08-19T14:04:56;29.90;48.40
66271;DHT22;53063;39.614;8.814;2022-08-19T14:07:22;29.80;49.20
66271;DHT22;53063;39.614;8.814;2022-08-19T14:09:50;30.00;48.30
66271;DHT22;53063;39.614;8.814;2022-08-19T14:12:19;29.80;47.90
66271;DHT22;53063;39.614;8.814;2022-08-19T14:14:46;29.40;48.90
66271;DHT22;53063;39.614;8.814;2022-08-19T14:17:12;28.90;50.30
66271;DHT22;53063;39.614;8.814;2022-08-19T14:19:38;28.70;50.70
66271;DHT22;53063;39.614;8.814;2022-08-19T14:22:04;28.80;51.30
66271;DHT22;53063;39.614;8.814;2022-08-19T14:24:31;28.80;51.50
66271;DHT22;53063;39.614;8.814;2022-08-19T14:27:00;28.50;50.90
66271;DHT22;53063;39.614;8.814;2022-08-19T14:29:26;28.10;50.90
66271;DHT22;53063;39.614;8.814;2022-08-19T14:31:54;28.10;51.70
66271;DHT22;53063;39.614;8.814;2022-08-19T14:34:21;28.40;52.10
66271;DHT22;53063;39.614;8.814;2022-08-19T14:36:47;28.60;52.00
66271;DHT22;53063;39.614;8.814;2022-08-19T14:39:13;28.70;52.00
66271;DHT22;53063;39.614;8.814;2022-08-19T14:41:41;28.60;51.70
66271;DHT22;53063;39.614;8.814;2022-08-19T14:44:07;28.60;51.70
66271;DHT22;53063;39.614;8.814;2022-08-19T14:46:35;28.50;51.70
66271;DHT22;53063;39.614;8.814;2022-08-19T14:49:01;28.30;52.40
66271;DHT22;53063;39.614;8.814;2022-08-19T14:51:27;28.00;53.20
66271;DHT22;53063;39.614;8.814;2022-08-19T14:53:54;27.90;53.90
66271;DHT22;53063;39.614;8.814;2022-08-19T14:56:23;27.90;53.30
66271;DHT22;53063;39.614;8.814;2022-08-19T14:58:49;28.20;53.50
66271;DHT22;53063;39.614;8.814;2022-08-19T15:01:20;28.30;53.40
66271;DHT22;53063;39.614;8.814;2022-08-19T15:03:47;27.90;54.60
66271;DHT22;53063;39.614;8.814;2022-08-19T15:06:13;27.70;56.70
66271;DHT22;53063;39.614;8.814;2022-08-19T15:08:41;27.20;62.30
66271;DHT22;53063;39.614;8.814;2022-08-19T15:11:14;26.80;66.80
66271;DHT22;53063;39.614;8.814;2022-08-19T15:13:41;26.60;69.50
66271;DHT22;53063;39.614;8.814;2022-08-19T15:16:10;26.30;68.70
66271;DHT22;53063;39.614;8.814;2022-08-19T15:18:37;26.20;68.60
66271;DHT22;53063;39.614;8.814;2022-08-19T15:21:03;26.30;68.00
66271;DHT22;53063;39.614;8.814;2022-08-19T15:23:29;26.20;63.10
66271;DHT22;53063;39.614;8.814;2022-08-19T15:25:55;26.50;62.80
66271;DHT22;53063;39.614;8.814;2022-08-19T15:28:22;26.80;62.10
66271;DHT22;53063;39.614;8.814;2022-08-19T15:30:48;27.00;59.30
66271;DHT22;53063;39.614;8.814;2022-08-19T15:33:16;27.10;59.10
66271;DHT22;53063;39.614;8.814;2022-08-19T15:35:43;26.90;59.20
66271;DHT22;53063;39.614;8.814;2022-08-19T15:38:10;26.70;59.90
66271;DHT22;53063;39.614;8.814;2022-08-19T15:40:39;26.70;60.50
66271;DHT22;53063;39.614;8.814;2022-08-19T15:43:06;26.70;58.90
66271;DHT22;53063;39.614;8.814;2022-08-19T15:45:32;26.60;59.50
66271;DHT22;53063;39.614;8.814;2022-08-19T15:48:02;26.50;59.30
66271;DHT22;53063;39.614;8.814;2022-08-19T15:50:30;26.50;59.80
66271;DHT22;53063;39.614;8.814;2022-08-19T15:53:00;26.30;60.10